Deer Grove, Illinois
Current Conditions -  °F | °C
As of 6:35 AM on Monday 20 Oct 2014 (Local Time) from KSQI Reporting Station
Clear Clear  
Wind Chill: 37°   Ceiling: Unl
Heat Index: 43°   Visibility: 10mi
Dew Point: 30°   Wind: 10mph
Humidity: 61%   Direction: 280°W
Pressure: 29.85"   Gusts: NA
Location:  41.61°N, 89.69°W
Report Text: KSQI 201135Z AUTO 28009KT 10SM CLR 06/M01 A2985 RMK AO1
Loading
Personal Weather Stations






























Interactive Weather Map
Tropical Storm Tracking
New forecast layout! Learn more

10-Day Weather Forecast

Advertisements
Track Severe Weather on mobile